sensor_id;sensor_type;location;lat;lon;timestamp;P1;durP1;ratioP1;P2;durP2;ratioP2
13012;SDS011;22580;57.670;12.006;2023-06-19T00:00:51;0.90;;;0.90;;
13012;SDS011;22580;57.670;12.006;2023-06-19T00:03:18;0.77;;;0.77;;
13012;SDS011;22580;57.670;12.006;2023-06-19T00:05:45;0.90;;;0.90;;
13012;SDS011;22580;57.670;12.006;2023-06-19T00:08:11;0.85;;;0.85;;
13012;SDS011;22580;57.670;12.006;2023-06-19T00:10:40;0.77;;;0.77;;
13012;SDS011;22580;57.670;12.006;2023-06-19T00:13:07;1.02;;;1.02;;
13012;SDS011;22580;57.670;12.006;2023-06-19T00:15:34;0.95;;;0.95;;
13012;SDS011;22580;57.670;12.006;2023-06-19T00:18:01;0.90;;;0.90;;
13012;SDS011;22580;57.670;12.006;2023-06-19T00:20:27;0.95;;;0.95;;
13012;SDS011;22580;57.670;12.006;2023-06-19T00:22:54;1.05;;;1.05;;
13012;SDS011;22580;57.670;12.006;2023-06-19T00:25:21;1.02;;;1.02;;
13012;SDS011;22580;57.670;12.006;2023-06-19T00:27:50;0.90;;;0.90;;
13012;SDS011;22580;57.670;12.006;2023-06-19T00:30:17;0.90;;;0.90;;
13012;SDS011;22580;57.670;12.006;2023-06-19T00:32:43;1.02;;;1.02;;
13012;SDS011;22580;57.670;12.006;2023-06-19T00:35:15;1.00;;;1.00;;
13012;SDS011;22580;57.670;12.006;2023-06-19T00:37:43;1.25;;;1.23;;
13012;SDS011;22580;57.670;12.006;2023-06-19T00:40:17;1.40;;;1.40;;
13012;SDS011;22580;57.670;12.006;2023-06-19T00:42:52;1.25;;;1.25;;
13012;SDS011;22580;57.670;12.006;2023-06-19T00:45:19;1.30;;;1.30;;
13012;SDS011;22580;57.670;12.006;2023-06-19T00:47:46;1.50;;;1.40;;
13012;SDS011;22580;57.670;12.006;2023-06-19T00:50:13;1.50;;;1.40;;
13012;SDS011;22580;57.670;12.006;2023-06-19T00:52:40;1.00;;;1.00;;
13012;SDS011;22580;57.670;12.006;2023-06-19T00:55:07;1.00;;;1.00;;
13012;SDS011;22580;57.670;12.006;2023-06-19T00:57:35;1.10;;;1.10;;
13012;SDS011;22580;57.670;12.006;2023-06-19T01:00:04;0.80;;;0.80;;
13012;SDS011;22580;57.670;12.006;2023-06-19T01:02:32;1.35;;;1.30;;
13012;SDS011;22580;57.670;12.006;2023-06-19T01:05:00;1.55;;;1.45;;
13012;SDS011;22580;57.670;12.006;2023-06-19T01:07:28;1.35;;;1.30;;
13012;SDS011;22580;57.670;12.006;2023-06-19T01:10:01;1.20;;;1.20;;
13012;SDS011;22580;57.670;12.006;2023-06-19T01:12:33;1.17;;;1.17;;
13012;SDS011;22580;57.670;12.006;2023-06-19T01:15:06;1.55;;;1.52;;
13012;SDS011;22580;57.670;12.006;2023-06-19T01:17:36;1.60;;;1.50;;
13012;SDS011;22580;57.670;12.006;2023-06-19T01:20:04;1.20;;;1.20;;
13012;SDS011;22580;57.670;12.006;2023-06-19T01:22:37;1.20;;;1.20;;
13012;SDS011;22580;57.670;12.006;2023-06-19T01:25:04;1.00;;;1.00;;
13012;SDS011;22580;57.670;12.006;2023-06-19T01:27:32;1.15;;;1.15;;
13012;SDS011;22580;57.670;12.006;2023-06-19T01:29:59;0.90;;;0.90;;
13012;SDS011;22580;57.670;12.006;2023-06-19T01:32:30;1.00;;;1.00;;
13012;SDS011;22580;57.670;12.006;2023-06-19T01:35:00;1.02;;;1.02;;
13012;SDS011;22580;57.670;12.006;2023-06-19T01:37:28;0.80;;;0.80;;
13012;SDS011;22580;57.670;12.006;2023-06-19T01:40:00;0.90;;;0.90;;
13012;SDS011;22580;57.670;12.006;2023-06-19T01:42:30;0.70;;;0.70;;
13012;SDS011;22580;57.670;12.006;2023-06-19T01:44:58;0.90;;;0.90;;
13012;SDS011;22580;57.670;12.006;2023-06-19T01:47:28;0.95;;;0.95;;
13012;SDS011;22580;57.670;12.006;2023-06-19T01:49:55;0.90;;;0.90;;
13012;SDS011;22580;57.670;12.006;2023-06-19T01:52:22;1.60;;;1.50;;
13012;SDS011;22580;57.670;12.006;2023-06-19T01:54:50;1.40;;;1.40;;
13012;SDS011;22580;57.670;12.006;2023-06-19T01:57:19;1.63;;;1.52;;
13012;SDS011;22580;57.670;12.006;2023-06-19T01:59:46;1.83;;;1.73;;
13012;SDS011;22580;57.670;12.006;2023-06-19T02:02:13;1.75;;;1.63;;
13012;SDS011;22580;57.670;12.006;2023-06-19T02:04:40;1.90;;;1.80;;
13012;SDS011;22580;57.670;12.006;2023-06-19T02:07:07;1.85;;;1.75;;
13012;SDS011;22580;57.670;12.006;2023-06-19T02:09:34;2.20;;;2.10;;
13012;SDS011;22580;57.670;12.006;2023-06-19T02:12:00;2.00;;;1.90;;
13012;SDS011;22580;57.670;12.006;2023-06-19T02:14:29;2.13;;;2.03;;
13012;SDS011;22580;57.670;12.006;2023-06-19T02:16:56;1.60;;;1.50;;
13012;SDS011;22580;57.670;12.006;2023-06-19T02:19:22;1.60;;;1.50;;
13012;SDS011;22580;57.670;12.006;2023-06-19T02:21:49;1.15;;;1.15;;
13012;SDS011;22580;57.670;12.006;2023-06-19T02:24:16;1.30;;;1.30;;
13012;SDS011;22580;57.670;12.006;2023-06-19T02:26:43;1.40;;;1.40;;
13012;SDS011;22580;57.670;12.006;2023-06-19T02:29:10;1.15;;;1.15;;
13012;SDS011;22580;57.670;12.006;2023-06-19T02:31:38;1.00;;;1.00;;
13012;SDS011;22580;57.670;12.006;2023-06-19T02:34:05;0.93;;;0.93;;
13012;SDS011;22580;57.670;12.006;2023-06-19T02:36:32;0.90;;;0.90;;
13012;SDS011;22580;57.670;12.006;2023-06-19T02:39:00;0.85;;;0.85;;
13012;SDS011;22580;57.670;12.006;2023-06-19T02:41:28;0.98;;;0.98;;
13012;SDS011;22580;57.670;12.006;2023-06-19T02:43:54;0.90;;;0.90;;
13012;SDS011;22580;57.670;12.006;2023-06-19T02:46:21;0.90;;;0.90;;
13012;SDS011;22580;57.670;12.006;2023-06-19T02:48:50;1.15;;;1.13;;
13012;SDS011;22580;57.670;12.006;2023-06-19T02:51:16;1.15;;;1.15;;
13012;SDS011;22580;57.670;12.006;2023-06-19T02:53:43;1.42;;;1.40;;
13012;SDS011;22580;57.670;12.006;2023-06-19T02:56:10;1.83;;;1.73;;
13012;SDS011;22580;57.670;12.006;2023-06-19T02:58:37;1.92;;;1.83;;
13012;SDS011;22580;57.670;12.006;2023-06-19T03:01:04;1.45;;;1.35;;
13012;SDS011;22580;57.670;12.006;2023-06-19T03:03:33;1.50;;;1.40;;
13012;SDS011;22580;57.670;12.006;2023-06-19T03:06:04;1.40;;;1.40;;
13012;SDS011;22580;57.670;12.006;2023-06-19T03:08:32;1.90;;;1.80;;
13012;SDS011;22580;57.670;12.006;2023-06-19T03:10:59;2.08;;;1.98;;
13012;SDS011;22580;57.670;12.006;2023-06-19T03:13:29;1.88;;;1.77;;
13012;SDS011;22580;57.670;12.006;2023-06-19T03:15:56;2.10;;;2.00;;
13012;SDS011;22580;57.670;12.006;2023-06-19T03:18:23;1.73;;;1.63;;
13012;SDS011;22580;57.670;12.006;2023-06-19T03:20:50;1.60;;;1.50;;
13012;SDS011;22580;57.670;12.006;2023-06-19T03:23:18;1.70;;;1.60;;
13012;SDS011;22580;57.670;12.006;2023-06-19T03:25:45;1.70;;;1.60;;
13012;SDS011;22580;57.670;12.006;2023-06-19T03:28:12;1.55;;;1.55;;
13012;SDS011;22580;57.670;12.006;2023-06-19T03:30:39;1.23;;;1.23;;
13012;SDS011;22580;57.670;12.006;2023-06-19T03:33:06;1.38;;;1.30;;
13012;SDS011;22580;57.670;12.006;2023-06-19T03:35:33;1.20;;;1.20;;
13012;SDS011;22580;57.670;12.006;2023-06-19T03:38:00;1.00;;;1.00;;
13012;SDS011;22580;57.670;12.006;2023-06-19T03:40:28;1.10;;;1.10;;
13012;SDS011;22580;57.670;12.006;2023-06-19T03:42:55;1.77;;;1.67;;
13012;SDS011;22580;57.670;12.006;2023-06-19T03:45:22;1.40;;;1.40;;
13012;SDS011;22580;57.670;12.006;2023-06-19T03:47:49;1.40;;;1.40;;
13012;SDS011;22580;57.670;12.006;2023-06-19T03:50:16;2.08;;;1.98;;
13012;SDS011;22580;57.670;12.006;2023-06-19T03:52:43;2.03;;;1.92;;
13012;SDS011;22580;57.670;12.006;2023-06-19T03:55:10;1.45;;;1.38;;
13012;SDS011;22580;57.670;12.006;2023-06-19T03:57:39;1.67;;;1.58;;
13012;SDS011;22580;57.670;12.006;2023-06-19T04:00:06;1.50;;;1.40;;
13012;SDS011;22580;57.670;12.006;2023-06-19T04:02:39;1.55;;;1.45;;
13012;SDS011;22580;57.670;12.006;2023-06-19T04:05:08;1.42;;;1.42;;
13012;SDS011;22580;57.670;12.006;2023-06-19T04:07:35;1.20;;;1.20;;
13012;SDS011;22580;57.670;12.006;2023-06-19T04:10:02;1.20;;;1.20;;
13012;SDS011;22580;57.670;12.006;2023-06-19T04:12:29;1.30;;;1.30;;
13012;SDS011;22580;57.670;12.006;2023-06-19T04:14:59;1.30;;;1.30;;
13012;SDS011;22580;57.670;12.006;2023-06-19T04:17:26;1.20;;;1.20;;
13012;SDS011;22580;57.670;12.006;2023-06-19T04:19:53;1.80;;;1.70;;
13012;SDS011;22580;57.670;12.006;2023-06-19T04:22:20;1.33;;;1.33;;
13012;SDS011;22580;57.670;12.006;2023-06-19T04:24:46;1.33;;;1.33;;
13012;SDS011;22580;57.670;12.006;2023-06-19T04:27:13;1.80;;;1.70;;
13012;SDS011;22580;57.670;12.006;2023-06-19T04:29:41;1.70;;;1.60;;
13012;SDS011;22580;57.670;12.006;2023-06-19T04:32:10;1.70;;;1.60;;
13012;SDS011;22580;57.670;12.006;2023-06-19T04:34:38;1.33;;;1.33;;
13012;SDS011;22580;57.670;12.006;2023-06-19T04:37:11;1.67;;;1.63;;
13012;SDS011;22580;57.670;12.006;2023-06-19T04:39:38;2.60;;;2.50;;
13012;SDS011;22580;57.670;12.006;2023-06-19T04:42:06;2.53;;;2.42;;
13012;SDS011;22580;57.670;12.006;2023-06-19T04:44:33;2.28;;;2.17;;
13012;SDS011;22580;57.670;12.006;2023-06-19T04:47:00;2.30;;;2.20;;
13012;SDS011;22580;57.670;12.006;2023-06-19T04:49:29;2.55;;;2.45;;
13012;SDS011;22580;57.670;12.006;2023-06-19T04:51:56;2.30;;;2.20;;
13012;SDS011;22580;57.670;12.006;2023-06-19T04:54:24;2.15;;;2.05;;
13012;SDS011;22580;57.670;12.006;2023-06-19T04:56:51;2.00;;;1.90;;
13012;SDS011;22580;57.670;12.006;2023-06-19T04:59:18;2.30;;;2.20;;
13012;SDS011;22580;57.670;12.006;2023-06-19T05:01:47;2.10;;;2.00;;
13012;SDS011;22580;57.670;12.006;2023-06-19T05:04:14;2.22;;;2.13;;
13012;SDS011;22580;57.670;12.006;2023-06-19T05:06:42;2.10;;;2.00;;
13012;SDS011;22580;57.670;12.006;2023-06-19T05:09:09;2.17;;;2.08;;
13012;SDS011;22580;57.670;12.006;2023-06-19T05:11:36;2.20;;;2.10;;
13012;SDS011;22580;57.670;12.006;2023-06-19T05:14:03;2.20;;;2.10;;
13012;SDS011;22580;57.670;12.006;2023-06-19T05:16:30;2.08;;;1.98;;
13012;SDS011;22580;57.670;12.006;2023-06-19T05:18:57;1.65;;;1.60;;
13012;SDS011;22580;57.670;12.006;2023-06-19T05:21:24;1.95;;;1.85;;
13012;SDS011;22580;57.670;12.006;2023-06-19T05:23:52;2.00;;;1.90;;
13012;SDS011;22580;57.670;12.006;2023-06-19T05:26:19;2.30;;;2.20;;
13012;SDS011;22580;57.670;12.006;2023-06-19T05:28:47;2.20;;;2.10;;
13012;SDS011;22580;57.670;12.006;2023-06-19T05:31:15;2.30;;;2.20;;
13012;SDS011;22580;57.670;12.006;2023-06-19T05:33:43;2.47;;;2.38;;
13012;SDS011;22580;57.670;12.006;2023-06-19T05:36:11;2.38;;;2.28;;
13012;SDS011;22580;57.670;12.006;2023-06-19T05:38:38;2.60;;;2.50;;
13012;SDS011;22580;57.670;12.006;2023-06-19T05:41:06;2.35;;;2.25;;
13012;SDS011;22580;57.670;12.006;2023-06-19T05:43:33;3.00;;;2.80;;
13012;SDS011;22580;57.670;12.006;2023-06-19T05:46:00;3.60;;;3.40;;
13012;SDS011;22580;57.670;12.006;2023-06-19T05:48:29;3.33;;;3.13;;
13012;SDS011;22580;57.670;12.006;2023-06-19T05:50:55;3.78;;;3.58;;
13012;SDS011;22580;57.670;12.006;2023-06-19T05:53:23;3.40;;;3.20;;
13012;SDS011;22580;57.670;12.006;2023-06-19T05:55:50;3.90;;;3.65;;
13012;SDS011;22580;57.670;12.006;2023-06-19T05:58:18;3.60;;;3.40;;
13012;SDS011;22580;57.670;12.006;2023-06-19T06:00:46;3.50;;;3.30;;
13012;SDS011;22580;57.670;12.006;2023-06-19T06:03:13;3.55;;;3.35;;
13012;SDS011;22580;57.670;12.006;2023-06-19T06:05:41;3.50;;;3.30;;
13012;SDS011;22580;57.670;12.006;2023-06-19T06:08:08;3.58;;;3.38;;
13012;SDS011;22580;57.670;12.006;2023-06-19T06:10:35;3.28;;;3.08;;
13012;SDS011;22580;57.670;12.006;2023-06-19T06:13:02;3.25;;;3.05;;
13012;SDS011;22580;57.670;12.006;2023-06-19T06:15:30;3.20;;;3.10;;
13012;SDS011;22580;57.670;12.006;2023-06-19T06:17:57;3.30;;;3.10;;
13012;SDS011;22580;57.670;12.006;2023-06-19T06:20:24;4.00;;;3.80;;
13012;SDS011;22580;57.670;12.006;2023-06-19T06:22:51;3.63;;;3.42;;
13012;SDS011;22580;57.670;12.006;2023-06-19T06:25:19;3.05;;;2.95;;
13012;SDS011;22580;57.670;12.006;2023-06-19T06:27:46;3.05;;;2.85;;
13012;SDS011;22580;57.670;12.006;2023-06-19T06:30:13;3.20;;;3.00;;
13012;SDS011;22580;57.670;12.006;2023-06-19T06:32:42;3.00;;;2.90;;
13012;SDS011;22580;57.670;12.006;2023-06-19T06:35:09;3.10;;;2.90;;
13012;SDS011;22580;57.670;12.006;2023-06-19T06:37:36;2.55;;;2.45;;
13012;SDS011;22580;57.670;12.006;2023-06-19T06:40:03;2.60;;;2.50;;
13012;SDS011;22580;57.670;12.006;2023-06-19T06:42:33;3.15;;;2.95;;
13012;SDS011;22580;57.670;12.006;2023-06-19T06:45:00;2.78;;;2.67;;
13012;SDS011;22580;57.670;12.006;2023-06-19T06:47:28;3.10;;;2.90;;
13012;SDS011;22580;57.670;12.006;2023-06-19T06:49:57;2.80;;;2.70;;
13012;SDS011;22580;57.670;12.006;2023-06-19T06:52:25;2.95;;;2.83;;
13012;SDS011;22580;57.670;12.006;2023-06-19T06:54:53;3.30;;;3.10;;
13012;SDS011;22580;57.670;12.006;2023-06-19T06:57:21;4.28;;;4.00;;
13012;SDS011;22580;57.670;12.006;2023-06-19T06:59:49;3.65;;;3.45;;
13012;SDS011;22580;57.670;12.006;2023-06-19T07:02:16;3.92;;;3.72;;
13012;SDS011;22580;57.670;12.006;2023-06-19T07:05:07;3.50;;;3.30;;
13012;SDS011;22580;57.670;12.006;2023-06-19T07:07:50;3.47;;;3.28;;
13012;SDS011;22580;57.670;12.006;2023-06-19T07:10:18;3.60;;;3.40;;
13012;SDS011;22580;57.670;12.006;2023-06-19T07:12:51;3.60;;;3.40;;
